Time;durP1;ratioP1;P1;durP2;ratioP2;P2;SDS_P1;SDS_P2;PMS_P1;PMS_P2;Temp;Humidity;BMP_temperature;BMP_pressure;BME280_temperature;BME280_humidity;BME280_pressure;Samples;Min_cycle;Max_cycle;Signal;HPM_P1;HPM_P2
2023/08/07 00:00:08;;;;;;;7.60;2.05;;;;;;;15.97;74.97;101456.19;5095934;28;20047;-64
2023/08/07 00:02:36;;;;;;;8.38;2.20;;;;;;;15.92;75.47;101456.38;5095857;28;20067;-67
2023/08/07 00:05:05;;;;;;;9.88;1.85;;;;;;;15.96;75.15;101448.97;5095678;28;20048;-66
2023/08/07 00:07:33;;;;;;;6.95;1.80;;;;;;;16.00;75.34;101461.06;5095566;28;20463;-65
2023/08/07 00:10:01;;;;;;;8.95;2.15;;;;;;;15.87;74.94;101459.28;5095956;28;20040;-66
2023/08/07 00:12:28;;;;;;;8.60;2.22;;;;;;;15.91;75.68;101458.31;5095957;28;20651;-65
2023/08/07 00:14:55;;;;;;;7.47;2.58;;;;;;;15.99;74.76;101460.25;5077709;28;20044;-65
2023/08/07 00:17:23;;;;;;;8.70;2.10;;;;;;;16.15;74.66;101463.28;5095655;28;20043;-65
2023/08/07 00:19:50;;;;;;;6.88;1.77;;;;;;;15.73;76.03;101470.59;5095760;28;20400;-65
2023/08/07 00:22:18;;;;;;;13.15;2.47;;;;;;;15.85;76.45;101467.97;5074288;28;20052;-65
2023/08/07 00:24:45;;;;;;;6.32;1.55;;;;;;;15.99;75.21;101463.03;5094981;28;20048;-66
2023/08/07 00:27:14;;;;;;;8.07;1.50;;;;;;;15.58;76.68;101469.19;5095428;28;20059;-65
2023/08/07 00:29:41;;;;;;;8.52;2.00;;;;;;;15.37;78.00;101468.19;5087344;28;20044;-65
2023/08/07 00:32:08;;;;;;;8.85;1.77;;;;;;;15.60;77.95;101475.19;5094909;28;20060;-64
2023/08/07 00:34:36;;;;;;;12.35;2.08;;;;;;;15.54;77.78;101472.91;5095522;28;20052;-66
2023/08/07 00:37:03;;;;;;;8.02;2.20;;;;;;;15.70;76.72;101469.31;5076810;28;20056;-65
2023/08/07 00:39:31;;;;;;;8.27;1.50;;;;;;;15.79;76.61;101474.84;5097022;28;20423;-65
2023/08/07 00:41:58;;;;;;;10.15;1.90;;;;;;;15.81;76.40;101466.19;5114158;28;20055;-66
2023/08/07 00:44:25;;;;;;;5.15;1.75;;;;;;;15.43;77.85;101468.88;5097119;28;20055;-64
2023/08/07 00:46:53;;;;;;;12.32;1.90;;;;;;;15.49;78.44;101462.81;5115121;28;20054;-65
2023/08/07 00:49:21;;;;;;;13.32;2.42;;;;;;;15.53;78.32;101462.97;5078969;28;20054;-65
2023/08/07 00:51:49;;;;;;;8.52;2.40;;;;;;;15.30;79.14;101459.53;5114966;28;20048;-65
2023/08/07 00:54:18;;;;;;;8.80;1.77;;;;;;;15.29;79.80;101455.09;5077354;28;20042;-65
2023/08/07 00:56:46;;;;;;;10.07;1.85;;;;;;;15.34;79.62;101456.91;5097265;28;20040;-65
2023/08/07 00:59:14;;;;;;;7.05;2.03;;;;;;;15.41;79.30;101457.28;5096387;28;20056;-65
2023/08/07 01:01:42;;;;;;;8.68;2.05;;;;;;;15.57;79.14;101459.19;5114865;28;20067;-63
2023/08/07 01:04:09;;;;;;;8.43;1.88;;;;;;;15.38;79.34;101461.47;5115348;28;20055;-65
2023/08/07 01:06:36;;;;;;;11.07;2.05;;;;;;;15.24;80.10;101460.81;5060461;28;20049;-64
2023/08/07 01:09:04;;;;;;;10.10;2.13;;;;;;;15.35;80.05;101455.75;5113719;28;20047;-66
2023/08/07 01:11:43;;;;;;;10.02;2.47;;;;;;;15.36;79.64;101457.41;5113501;28;20051;-65
2023/08/07 01:14:30;;;;;;;7.78;2.03;;;;;;;15.26;80.51;101455.75;5115207;28;20055;-65
2023/08/07 01:17:03;;;;;;;9.25;2.00;;;;;;;15.30;80.38;101458.69;5113625;28;20052;-65
2023/08/07 01:19:31;;;;;;;7.13;1.80;;;;;;;15.41;80.53;101457.28;5115081;28;20050;-65
2023/08/07 01:22:09;;;;;;;5.00;1.70;;;;;;;15.35;80.06;101459.34;5113059;28;20058;-65
2023/08/07 01:24:40;;;;;;;7.20;1.95;;;;;;;14.90;82.36;101457.22;5094084;28;20055;-66
2023/08/07 01:27:13;;;;;;;11.15;2.55;;;;;;;15.02;83.19;101457.38;5094109;28;20051;-65
2023/08/07 01:29:58;;;;;;;9.93;2.50;;;;;;;14.95;83.38;101454.28;5092706;28;20445;-65
2023/08/07 01:32:33;;;;;;;9.43;2.17;;;;;;;14.95;83.70;101457.03;5074924;28;20048;-65
2023/08/07 01:35:02;;;;;;;14.35;2.70;;;;;;;14.92;83.69;101452.97;5089312;28;20047;-65
2023/08/07 01:37:33;;;;;;;10.25;2.58;;;;;;;14.87;83.76;101450.34;5078549;28;20047;-65
2023/08/07 01:40:03;;;;;;;7.13;1.98;;;;;;;15.11;82.58;101447.09;5095290;28;20047;-65
2023/08/07 01:42:32;;;;;;;8.02;2.00;;;;;;;15.26;82.32;101446.59;5095325;28;20163;-65
2023/08/07 01:45:00;;;;;;;7.43;1.95;;;;;;;15.16;81.98;101449.72;5113966;28;20055;-65
2023/08/07 01:47:27;;;;;;;10.52;2.00;;;;;;;15.16;82.49;101456.09;5096579;28;20648;-65
2023/08/07 01:49:55;;;;;;;6.22;1.98;;;;;;;15.16;82.46;101458.03;5055984;28;20047;-65
2023/08/07 01:52:23;;;;;;;15.02;2.33;;;;;;;15.13;82.79;101451.16;5095363;28;20063;-65
2023/08/07 01:54:50;;;;;;;11.27;1.98;;;;;;;14.79;84.39;101456.69;5095959;28;20048;-65
2023/08/07 01:57:17;;;;;;;10.05;2.15;;;;;;;14.87;85.06;101455.09;5097407;28;20062;-66
2023/08/07 01:59:45;;;;;;;9.07;2.22;;;;;;;14.97;84.92;101454.78;5036523;28;20053;-64
2023/08/07 02:02:12;;;;;;;7.93;2.40;;;;;;;14.81;85.77;101459.16;5028979;28;20054;-66
2023/08/07 02:04:40;;;;;;;8.75;2.30;;;;;;;14.81;85.95;101464.69;5013181;28;20046;-65
2023/08/07 02:07:07;;;;;;;9.70;2.28;;;;;;;15.08;85.16;101456.09;5084805;28;20051;-66
2023/08/07 02:09:34;;;;;;;9.45;2.72;;;;;;;15.12;84.65;101454.28;5011509;28;20069;-66
2023/08/07 02:12:03;;;;;;;6.78;2.15;;;;;;;15.26;84.03;101453.00;5094519;28;20062;-65
2023/08/07 02:14:30;;;;;;;10.77;2.20;;;;;;;15.32;82.78;101457.25;5114210;28;20062;-64
2023/08/07 02:16:58;;;;;;;7.32;2.30;;;;;;;15.09;83.78;101453.00;5112707;28;20059;-66
2023/08/07 02:19:27;;;;;;;11.75;2.30;;;;;;;15.13;84.47;101453.16;5112449;28;20047;-65
2023/08/07 02:21:55;;;;;;;7.75;2.40;;;;;;;15.18;84.35;101450.22;5113615;28;20048;-65
2023/08/07 02:24:22;;;;;;;13.90;2.38;;;;;;;15.14;84.49;101455.59;5112238;28;20054;-65
2023/08/07 02:26:49;;;;;;;8.98;2.38;;;;;;;15.11;84.62;101459.03;5095127;28;20066;-66
2023/08/07 02:29:19;;;;;;;11.47;2.23;;;;;;;15.03;85.20;101454.28;5113582;28;20071;-67
2023/08/07 02:31:46;;;;;;;7.10;2.10;;;;;;;15.06;85.39;101455.59;5113267;28;20051;-65
2023/08/07 02:34:15;;;;;;;11.70;2.58;;;;;;;15.04;85.14;101446.78;5113541;28;20054;-65
2023/08/07 02:36:42;;;;;;;9.75;2.85;;;;;;;14.96;86.00;101451.16;5095558;28;20682;-65
2023/08/07 02:39:10;;;;;;;11.07;2.47;;;;;;;14.92;86.14;101452.16;5078690;28;20055;-64
2023/08/07 02:41:37;;;;;;;9.20;2.53;;;;;;;14.93;86.38;101459.31;5112149;28;20423;-66
2023/08/07 02:44:04;;;;;;;13.27;2.83;;;;;;;14.95;87.02;101457.88;5113568;28;20051;-66
2023/08/07 02:46:32;;;;;;;11.65;2.55;;;;;;;15.04;86.90;101453.16;5108735;28;20541;-65
2023/08/07 02:48:59;;;;;;;8.63;2.45;;;;;;;15.09;86.11;101449.38;5057870;28;20055;-66
2023/08/07 02:51:26;;;;;;;8.50;2.78;;;;;;;15.03;86.83;101453.47;5106833;28;20058;-63
2023/08/07 02:53:54;;;;;;;9.88;2.92;;;;;;;15.04;86.55;101455.09;5029931;28;20540;-65
2023/08/07 02:56:22;;;;;;;12.35;2.70;;;;;;;15.06;85.99;101450.03;5053833;28;20050;-65
2023/08/07 02:58:49;;;;;;;10.88;2.53;;;;;;;15.33;85.07;101449.72;5085051;28;20068;-64
2023/08/07 03:01:16;;;;;;;12.18;2.38;;;;;;;15.24;84.42;101451.66;5012343;28;20053;-64
2023/08/07 03:03:44;;;;;;;12.18;3.05;;;;;;;14.98;85.96;101453.63;5051966;28;20047;-64
2023/08/07 03:06:11;;;;;;;11.45;2.67;;;;;;;14.83;87.36;101460.47;5100000;28;20047;-66
2023/08/07 03:08:39;;;;;;;11.88;2.55;;;;;;;14.73;88.29;101451.63;5094675;28;20432;-65
2023/08/07 03:11:06;;;;;;;10.20;2.85;;;;;;;14.74;88.88;101456.84;5095126;28;20044;-65
2023/08/07 03:13:34;;;;;;;10.35;2.53;;;;;;;14.85;88.70;101451.81;5115658;28;20059;-65
2023/08/07 03:16:06;;;;;;;9.70;2.72;;;;;;;14.92;88.03;101461.31;5098775;28;20073;-66
2023/08/07 03:18:34;;;;;;;12.77;2.97;;;;;;;14.87;88.40;101460.63;5082156;28;20043;-65
2023/08/07 03:21:02;;;;;;;11.43;2.58;;;;;;;15.03;88.01;101459.81;5082144;28;20044;-65
2023/08/07 03:23:29;;;;;;;11.30;2.95;;;;;;;14.77;89.39;101460.94;5097830;28;20048;-66
2023/08/07 03:26:10;;;;;;;10.77;2.38;;;;;;;14.74;89.89;101456.03;5095542;28;20055;-65
2023/08/07 03:28:48;;;;;;;12.30;3.35;;;;;;;14.68;90.65;101464.50;5098624;28;20051;-65
2023/08/07 03:31:16;;;;;;;12.18;2.92;;;;;;;14.65;91.26;101467.09;5116828;28;20048;-66
2023/08/07 03:33:44;;;;;;;13.35;2.75;;;;;;;14.53;91.62;101473.28;5080853;28;20055;-64
2023/08/07 03:36:12;;;;;;;11.98;2.70;;;;;;;14.58;91.78;101472.31;5098226;28;20047;-65
2023/08/07 03:38:41;;;;;;;10.93;2.83;;;;;;;14.60;91.91;101472.81;5081635;28;20563;-65
2023/08/07 03:41:08;;;;;;;13.38;2.95;;;;;;;14.55;92.28;101476.56;5115175;28;20499;-64
2023/08/07 03:43:38;;;;;;;12.23;2.97;;;;;;;14.40;93.04;101476.19;5085680;28;20546;-65
2023/08/07 03:46:05;;;;;;;11.00;2.95;;;;;;;14.32;93.74;101469.44;5055286;28;20043;-64
2023/08/07 03:48:33;;;;;;;10.40;3.42;;;;;;;14.27;94.85;101471.53;5116386;28;20047;-65
2023/08/07 03:51:08;;;;;;;11.43;3.60;;;;;;;14.34;94.12;101466.34;5098668;28;20526;-65
2023/08/07 03:53:40;;;;;;;11.52;3.45;;;;;;;14.47;93.94;101474.56;5097408;28;20057;-64
2023/08/07 03:56:08;;;;;;;9.95;2.83;;;;;;;14.29;93.90;101469.28;5064815;28;20053;-65
2023/08/07 03:58:35;;;;;;;11.30;2.70;;;;;;;14.35;94.04;101470.75;5087926;28;20131;-64
2023/08/07 04:01:03;;;;;;;17.15;3.13;;;;;;;14.10;95.35;101469.50;5081558;28;20051;-65
2023/08/07 04:03:31;;;;;;;11.52;3.10;;;;;;;14.09;95.62;101470.63;5097656;28;20141;-65
2023/08/07 04:06:05;;;;;;;9.18;3.08;;;;;;;14.28;95.99;101471.22;5089416;28;20519;-65
2023/08/07 04:08:32;;;;;;;12.25;3.63;;;;;;;14.25;95.17;101471.84;5116566;28;20044;-65
2023/08/07 04:11:04;;;;;;;12.20;3.97;;;;;;;14.32;95.20;101474.16;5066583;28;20040;-65
2023/08/07 04:13:33;;;;;;;16.65;3.40;;;;;;;14.37;94.68;101476.78;5114585;28;20047;-65
2023/08/07 04:16:04;;;;;;;13.77;3.47;;;;;;;14.35;94.82;101470.75;5098136;28;20081;-65
2023/08/07 04:18:32;;;;;;;16.90;3.35;;;;;;;14.39;94.44;101472.56;5116191;28;20052;-65
2023/08/07 04:21:01;;;;;;;;;;;;;;;14.51;93.19;101471.97;5116450;28;20040;-66
2023/08/07 04:23:29;;;;;;;9.52;2.80;;;;;;;14.53;93.00;101475.22;5114567;28;19930;-66
2023/08/07 04:25:56;;;;;;;13.80;2.95;;;;;;;14.64;92.37;101480.16;5094710;28;20064;-66
2023/08/07 04:28:23;;;;;;;12.32;3.15;;;;;;;14.60;91.09;101478.34;5114828;28;20534;-65
2023/08/07 04:30:51;;;;;;;9.93;3.30;;;;;;;14.55;91.31;101484.88;5114901;28;20051;-66
2023/08/07 04:33:20;;;;;;;13.88;2.90;;;;;;;14.42;92.07;101479.41;5097740;28;20050;-66
2023/08/07 04:35:47;;;;;;;11.95;3.10;;;;;;;14.49;91.29;101482.53;5115152;28;20051;-67
2023/08/07 04:38:16;;;;;;;11.65;2.90;;;;;;;14.65;91.10;101478.19;5096682;28;20495;-66
2023/08/07 04:40:50;;;;;;;13.55;3.17;;;;;;;14.75;90.67;101482.63;5115608;28;20056;-66
2023/08/07 04:43:20;;;;;;;12.20;3.50;;;;;;;14.71;89.94;101482.47;5116120;28;20043;-66
2023/08/07 04:45:48;;;;;;;13.13;3.40;;;;;;;14.64;89.96;101485.69;5115063;28;20058;-66
2023/08/07 04:48:17;;;;;;;13.00;3.00;;;;;;;14.71;90.03;101489.97;5095901;28;20486;-66
2023/08/07 04:50:45;;;;;;;14.93;3.53;;;;;;;14.66;90.39;101488.16;5097536;28;20044;-66
2023/08/07 04:53:12;;;;;;;9.10;2.70;;;;;;;14.62;90.86;101495.47;5113847;28;20079;-66
2023/08/07 04:55:40;;;;;;;10.82;3.45;;;;;;;14.67;90.89;101489.78;5097132;28;20052;-65
2023/08/07 04:58:07;;;;;;;12.77;3.33;;;;;;;14.71;90.29;101484.41;5114411;28;20043;-65
2023/08/07 05:00:36;;;;;;;12.80;3.25;;;;;;;14.71;90.10;101492.72;5114013;28;20054;-65
2023/08/07 05:03:04;;;;;;;10.02;3.33;;;;;;;14.81;90.26;101493.25;5115608;28;20044;-65
2023/08/07 05:05:31;;;;;;;13.93;3.70;;;;;;;14.91;89.67;101495.72;5112082;28;20044;-67
2023/08/07 05:07:59;;;;;;;14.32;3.40;;;;;;;14.82;90.14;101496.84;5109517;27;20071;-64
2023/08/07 05:10:26;;;;;;;11.48;3.33;;;;;;;14.92;90.37;101502.91;5111053;27;20050;-66
2023/08/07 05:12:55;;;;;;;12.63;3.60;;;;;;;14.92;90.41;101508.47;5093956;28;20054;-67
2023/08/07 05:15:23;;;;;;;17.85;4.20;;;;;;;14.96;90.35;101503.09;5099899;28;20414;-64
2023/08/07 05:17:51;;;;;;;12.68;3.70;;;;;;;14.78;91.68;101498.63;5116272;27;20051;-65
2023/08/07 05:20:19;;;;;;;15.07;3.58;;;;;;;14.73;92.24;101502.38;5126690;27;20040;-66
2023/08/07 05:22:46;;;;;;;14.68;3.80;;;;;;;14.75;93.55;101502.06;5109745;28;20047;-66
2023/08/07 05:25:15;;;;;;;10.70;3.60;;;;;;;14.77;92.97;101508.09;5113961;28;20048;-65
2023/08/07 05:27:44;;;;;;;14.25;3.72;;;;;;;14.73;93.52;101504.31;5114759;28;20043;-65
2023/08/07 05:30:12;;;;;;;14.35;4.50;;;;;;;14.87;93.58;101508.59;5114530;28;20054;-65
2023/08/07 05:32:40;;;;;;;14.35;3.90;;;;;;;14.83;92.81;101510.41;5114821;28;20055;-66
2023/08/07 05:35:08;;;;;;;18.10;4.15;;;;;;;14.96;92.85;101522.50;5096191;28;20061;-64
2023/08/07 05:37:36;;;;;;;15.13;4.22;;;;;;;15.18;91.85;101517.66;5113344;28;20051;-65
2023/08/07 05:40:05;;;;;;;10.13;3.83;;;;;;;15.15;91.34;101512.72;5113357;28;20553;-64
2023/08/07 05:42:32;;;;;;;15.93;4.10;;;;;;;15.26;91.18;101518.78;5113991;28;20072;-65
2023/08/07 05:45:00;;;;;;;15.63;5.20;;;;;;;15.24;91.88;101523.81;5095363;28;20055;-66
2023/08/07 05:47:27;;;;;;;14.95;4.82;;;;;;;15.21;91.72;101522.53;5095587;28;20603;-65
2023/08/07 05:49:55;;;;;;;15.40;5.30;;;;;;;15.34;91.78;101524.31;5111840;28;20415;-66
2023/08/07 05:52:22;;;;;;;20.25;6.50;;;;;;;15.29;91.88;101523.69;5031018;28;20050;-65
2023/08/07 05:54:49;;;;;;;20.58;6.13;;;;;;;15.33;92.16;101527.44;5019016;28;20057;-66
2023/08/07 05:57:17;;;;;;;16.50;6.93;;;;;;;15.21;92.71;101533.63;5113768;28;20058;-66
2023/08/07 05:59:45;;;;;;;24.73;7.85;;;;;;;15.30;93.79;101525.31;5114057;28;20063;-65
2023/08/07 06:02:12;;;;;;;22.10;8.02;;;;;;;15.46;92.59;101521.75;5112615;28;20050;-66
2023/08/07 06:04:40;;;;;;;19.52;8.20;;;;;;;15.19;93.78;101524.00;5114540;28;20063;-66
2023/08/07 06:07:08;;;;;;;22.42;9.32;;;;;;;15.02;96.47;101523.97;5091973;28;20063;-65
2023/08/07 06:09:35;;;;;;;22.63;9.05;;;;;;;15.13;96.86;101526.09;5113524;28;20048;-66
2023/08/07 06:12:03;;;;;;;19.80;9.07;;;;;;;14.91;97.19;101525.41;5095848;28;20047;-65
2023/08/07 06:14:31;;;;;;;26.67;9.25;;;;;;;14.59;100.00;101523.88;5092248;28;20059;-67
2023/08/07 06:17:00;;;;;;;23.80;8.68;;;;;;;14.74;100.00;101523.41;5113768;28;20044;-66
2023/08/07 06:19:28;;;;;;;25.90;8.80;;;;;;;15.11;100.00;101522.03;5111922;28;20044;-66
2023/08/07 06:21:59;;;;;;;25.08;7.78;;;;;;;15.15;98.54;101528.56;5110543;28;20293;-67
2023/08/07 06:24:28;;;;;;;21.65;8.13;;;;;;;15.03;98.66;101539.50;5109941;28;20048;-66
2023/08/07 06:26:56;;;;;;;19.05;7.78;;;;;;;14.96;99.34;101537.16;5113850;28;20059;-66
2023/08/07 06:29:23;;;;;;;21.25;7.80;;;;;;;15.11;100.00;101533.97;5091183;28;20047;-66
2023/08/07 06:31:51;;;;;;;15.23;6.88;;;;;;;15.20;98.91;101537.53;5110434;28;20051;-65
2023/08/07 06:34:19;;;;;;;19.23;6.72;;;;;;;15.25;98.51;101536.59;5109597;28;20047;-65
2023/08/07 06:36:46;;;;;;;21.92;7.75;;;;;;;15.07;98.46;101544.06;5104951;28;20055;-66
2023/08/07 06:39:13;;;;;;;19.08;7.18;;;;;;;15.10;99.51;101551.72;5102703;28;20051;-64
2023/08/07 06:41:41;;;;;;;17.25;6.75;;;;;;;15.14;98.93;101546.34;5084297;28;20056;-65
2023/08/07 06:44:10;;;;;;;18.02;6.65;;;;;;;15.41;98.79;101548.88;5069906;28;20052;-63
2023/08/07 06:46:37;;;;;;;19.30;7.18;;;;;;;15.68;97.56;101549.38;5070628;28;20036;-64
2023/08/07 06:49:04;;;;;;;20.67;7.85;;;;;;;15.78;96.73;101556.53;5070515;28;20129;-64
2023/08/07 06:51:31;;;;;;;19.20;7.60;;;;;;;16.07;94.43;101551.13;5109960;28;20451;-63
2023/08/07 06:53:59;;;;;;;16.00;6.60;;;;;;;16.37;92.51;101561.19;5111598;28;20044;-64
2023/08/07 06:56:26;;;;;;;18.63;7.50;;;;;;;16.20;90.67;101564.00;5093829;28;20039;-64
2023/08/07 06:58:54;;;;;;;17.83;6.93;;;;;;;16.26;92.06;101570.22;5088151;28;20059;-64
2023/08/07 07:01:21;;;;;;;14.88;5.93;;;;;;;16.74;89.03;101570.72;5110880;28;20043;-65
2023/08/07 07:03:52;;;;;;;13.32;5.47;;;;;;;16.91;85.96;101569.84;5112414;28;20048;-64
2023/08/07 07:06:20;;;;;;;14.13;6.38;;;;;;;16.49;86.85;101578.00;5107564;28;20051;-67
2023/08/07 07:08:48;;;;;;;14.18;6.45;;;;;;;16.62;87.29;101581.75;5108918;28;20055;-65
2023/08/07 07:11:16;;;;;;;15.60;5.88;;;;;;;16.89;85.91;101582.13;5091597;28;20489;-65
2023/08/07 07:13:46;;;;;;;16.15;6.63;;;;;;;16.77;86.08;101578.44;5089990;28;20043;-66
2023/08/07 07:16:13;;;;;;;14.30;6.97;;;;;;;16.54;86.68;101583.44;5111295;28;20082;-65
2023/08/07 07:18:41;;;;;;;14.65;6.53;;;;;;;16.73;85.88;101583.03;5111286;28;20043;-67
2023/08/07 07:21:08;;;;;;;16.50;6.80;;;;;;;16.83;86.69;101580.69;5111656;28;20040;-66
2023/08/07 07:23:36;;;;;;;11.95;6.25;;;;;;;16.78;86.10;101582.81;5108742;28;20047;-66
2023/08/07 07:26:03;;;;;;;14.70;6.28;;;;;;;16.80;86.26;101586.09;5092627;28;20058;-65
2023/08/07 07:28:30;;;;;;;17.13;6.85;;;;;;;16.45;87.15;101595.69;5111596;28;20046;-64
2023/08/07 07:30:58;;;;;;;19.23;6.97;;;;;;;15.81;91.46;101594.81;5109351;28;20051;-65
2023/08/07 07:33:25;;;;;;;12.93;6.20;;;;;;;16.23;90.70;101588.34;5109144;28;20066;-67
2023/08/07 07:35:53;;;;;;;14.85;6.40;;;;;;;16.57;88.19;101593.06;5110244;28;20474;-65
2023/08/07 07:38:20;;;;;;;14.00;6.93;;;;;;;16.56;88.19;101594.22;5088587;28;20118;-65
2023/08/07 07:40:48;;;;;;;17.25;6.88;;;;;;;16.90;86.67;101588.50;5092066;28;20054;-65
2023/08/07 07:43:15;;;;;;;15.85;6.65;;;;;;;16.96;86.16;101586.34;5108163;28;20046;-64
2023/08/07 07:45:44;;;;;;;17.40;5.50;;;;;;;17.23;84.49;101586.69;5108342;28;20047;-65
2023/08/07 07:48:11;;;;;;;18.55;6.80;;;;;;;17.42;83.33;101583.44;5105321;27;20050;-65
2023/08/07 07:50:39;;;;;;;15.35;7.05;;;;;;;17.70;82.28;101568.69;5108217;28;20074;-65
2023/08/07 07:53:06;;;;;;;15.70;6.88;;;;;;;17.63;81.32;101579.56;5087577;28;20055;-65
2023/08/07 07:55:34;;;;;;;15.90;5.90;;;;;;;17.41;81.71;101585.44;5108684;28;20058;-64
2023/08/07 07:58:01;;;;;;;11.98;6.13;;;;;;;17.35;82.66;101588.72;5106614;28;20051;-65
2023/08/07 08:00:28;;;;;;;19.45;6.45;;;;;;;17.39;82.54;101598.88;5088731;28;20050;-65
2023/08/07 08:02:56;;;;;;;17.65;6.45;;;;;;;17.30;82.26;101600.88;5096182;28;20046;-66
2023/08/07 08:05:23;;;;;;;16.92;6.82;;;;;;;17.51;82.20;101601.78;5093546;28;20040;-66
2023/08/07 08:07:51;;;;;;;12.23;6.10;;;;;;;17.87;81.24;101595.56;5105767;28;20043;-65
2023/08/07 08:10:18;;;;;;;18.55;6.35;;;;;;;18.04;79.92;101612.16;5104737;28;20054;-65
2023/08/07 08:12:45;;;;;;;15.65;5.85;;;;;;;17.73;79.69;101603.41;5108708;28;20044;-64
2023/08/07 08:15:13;;;;;;;16.50;6.47;;;;;;;17.87;80.41;101601.97;5106314;27;20070;-66
2023/08/07 08:17:40;;;;;;;13.60;5.43;;;;;;;18.21;78.73;101603.63;5106736;28;20055;-65
2023/08/07 08:20:08;;;;;;;18.40;5.60;;;;;;;18.21;77.22;101602.81;5108717;28;20044;-65
2023/08/07 08:22:36;;;;;;;18.83;5.32;;;;;;;18.33;75.95;101614.00;5110640;28;20039;-65
2023/08/07 08:25:04;;;;;;;14.90;4.75;;;;;;;18.48;75.18;101608.63;5112055;28;20059;-64
2023/08/07 08:27:32;;;;;;;12.20;4.93;;;;;;;17.75;77.26;101613.06;5094519;27;20047;-64
2023/08/07 08:29:59;;;;;;;14.18;4.57;;;;;;;16.96;78.21;101614.19;5095023;28;20067;-64
2023/08/07 08:32:26;;;;;;;9.18;4.00;;;;;;;16.99;79.13;101600.41;5092840;28;20052;-65
2023/08/07 08:34:54;;;;;;;13.50;4.10;;;;;;;17.13;79.47;101611.31;5112259;28;20039;-65
2023/08/07 08:37:21;;;;;;;9.98;4.18;;;;;;;17.55;79.24;101599.94;5108881;27;20051;-65
2023/08/07 08:39:49;;;;;;;10.95;4.10;;;;;;;18.08;76.84;101599.16;5110721;28;20043;-65
2023/08/07 08:42:17;;;;;;;8.88;3.63;;;;;;;17.79;75.25;101611.22;5087663;28;20043;-65
2023/08/07 08:44:51;;;;;;;10.00;3.50;;;;;;;17.52;76.33;101606.16;5106729;27;20055;-65
2023/08/07 08:47:18;;;;;;;11.63;4.30;;;;;;;17.55;76.56;101621.41;5106231;28;20569;-66
2023/08/07 08:49:47;;;;;;;12.55;4.20;;;;;;;17.61;76.16;101612.50;5072406;28;20067;-64
2023/08/07 08:52:16;;;;;;;9.40;4.25;;;;;;;17.96;74.97;101610.25;5111732;28;20051;-66
2023/08/07 08:54:44;;;;;;;12.10;4.20;;;;;;;18.23;74.48;101595.75;5086977;27;20566;-65
2023/08/07 08:57:11;;;;;;;13.05;4.95;;;;;;;18.23;74.75;101597.72;5109981;27;20055;-64
2023/08/07 08:59:42;;;;;;;10.80;4.40;;;;;;;18.27;74.36;101605.03;5093922;28;20079;-65
2023/08/07 09:02:10;;;;;;;11.85;4.80;;;;;;;17.92;75.96;101598.19;5109693;28;20051;-65
2023/08/07 09:04:37;;;;;;;11.13;4.97;;;;;;;17.84;75.95;101596.25;5092801;28;20051;-65
2023/08/07 09:07:06;;;;;;;10.82;4.40;;;;;;;17.89;75.63;101599.66;5106354;28;20052;-65
2023/08/07 09:09:33;;;;;;;13.63;4.28;;;;;;;17.97;75.58;101595.97;5098692;28;20043;-65
2023/08/07 09:12:01;;;;;;;10.88;5.32;;;;;;;18.43;74.46;101605.25;5096298;27;20065;-64
2023/08/07 09:14:31;;;;;;;14.00;4.65;;;;;;;18.22;72.09;101616.41;5109351;27;20495;-65
2023/08/07 09:17:00;;;;;;;8.63;3.70;;;;;;;17.42;73.54;101616.84;5091119;28;20066;-65
2023/08/07 09:19:28;;;;;;;9.05;4.00;;;;;;;17.17;76.14;101618.66;5105425;28;20051;-65
2023/08/07 09:21:56;;;;;;;8.13;3.88;;;;;;;17.67;75.73;101616.72;5082524;28;20063;-67
2023/08/07 09:24:23;;;;;;;14.35;3.63;;;;;;;18.04;74.34;101614.13;5103204;28;20050;-65
2023/08/07 09:26:52;;;;;;;12.40;4.07;;;;;;;18.53;72.52;101608.41;5091658;28;20044;-64
2023/08/07 09:29:22;;;;;;;11.32;4.65;;;;;;;18.65;72.04;101607.63;5115869;27;20062;-64
2023/08/07 09:31:54;;;;;;;11.48;4.63;;;;;;;18.78;71.83;101607.28;5106571;28;20054;-65
2023/08/07 09:34:22;;;;;;;28.00;5.93;;;;;;;19.11;71.43;101603.59;5106728;28;20051;-66
2023/08/07 09:36:49;;;;;;;11.82;3.45;;;;;;;19.22;69.83;101605.56;5106597;28;20365;-63
2023/08/07 09:39:24;;;;;;;12.05;3.83;;;;;;;19.09;68.92;101610.31;5106544;28;20113;-64
2023/08/07 09:42:05;;;;;;;11.75;3.83;;;;;;;19.16;69.80;101609.75;5082306;28;20918;-65
2023/08/07 09:44:36;;;;;;;12.90;3.38;;;;;;;18.97;69.41;101609.50;5067987;28;20063;-66
2023/08/07 09:47:14;;;;;;;8.32;3.13;;;;;;;19.00;67.53;101609.63;5066957;28;20063;-63
2023/08/07 09:49:42;;;;;;;23.77;4.15;;;;;;;19.49;67.03;101610.44;5063972;28;20546;-66
2023/08/07 09:52:11;;;;;;;9.35;3.15;;;;;;;18.93;67.66;101612.19;5062044;28;20037;-62
2023/08/07 09:54:38;;;;;;;14.57;3.53;;;;;;;19.12;68.40;101605.22;5066334;28;20052;-64
2023/08/07 09:57:06;;;;;;;9.68;3.75;;;;;;;19.35;66.77;101610.03;5068243;28;20432;-64
2023/08/07 09:59:34;;;;;;;9.55;2.80;;;;;;;18.77;64.49;101607.63;5063987;28;20053;-62
2023/08/07 10:02:03;;;;;;;7.88;4.15;;;;;;;18.43;66.33;101606.03;5066583;28;20056;-63
2023/08/07 10:04:30;;;;;;;6.75;2.95;;;;;;;18.38;66.39;101609.03;5075948;28;20049;-62
2023/08/07 10:06:58;;;;;;;9.75;2.70;;;;;;;18.29;67.35;101610.28;5068243;28;20051;-63
2023/08/07 10:09:26;;;;;;;5.80;2.72;;;;;;;18.32;67.38;101604.03;5067036;28;20052;-66
2023/08/07 10:11:54;;;;;;;11.30;3.17;;;;;;;18.25;67.11;101601.78;5063837;28;20049;-64
2023/08/07 10:14:22;;;;;;;4.97;2.50;;;;;;;18.30;64.92;101612.72;5062804;28;20057;-64
2023/08/07 10:16:49;;;;;;;5.82;2.45;;;;;;;18.39;63.60;101598.69;5075851;28;20516;-65
2023/08/07 10:19:17;;;;;;;8.68;2.67;;;;;;;18.26;64.19;101589.47;5066025;28;20052;-67
2023/08/07 10:21:45;;;;;;;5.32;2.63;;;;;;;18.56;63.96;101585.41;5066665;28;20036;-64
2023/08/07 10:24:13;;;;;;;4.60;2.10;;;;;;;18.86;62.63;101574.84;5064500;28;20045;-65
2023/08/07 10:26:45;;;;;;;5.25;2.35;;;;;;;19.06;62.18;101580.31;5067452;28;20049;-68
2023/08/07 10:29:14;;;;;;;7.72;2.38;;;;;;;19.04;60.57;101587.41;5061247;28;20420;-66
2023/08/07 10:31:42;;;;;;;5.90;2.08;;;;;;;18.85;61.15;101582.41;5065033;28;20895;-65
2023/08/07 10:34:10;;;;;;;5.43;1.98;;;;;;;19.16;60.67;101575.44;5064238;28;20044;-65
2023/08/07 10:36:43;;;;;;;8.18;2.63;;;;;;;19.52;60.08;101578.19;5066666;28;20507;-64
2023/08/07 10:39:15;;;;;;;11.80;7.18;;;;;;;19.64;59.10;101575.38;5061822;28;20048;-64
2023/08/07 10:41:56;;;;;;;17.35;11.00;;;;;;;19.80;58.13;101579.06;5089244;28;20060;-68
2023/08/07 10:44:26;;;;;;;5.88;2.40;;;;;;;19.51;57.11;101584.97;5092406;28;20425;-69
2023/08/07 10:46:55;;;;;;;5.57;2.40;;;;;;;19.49;56.47;101581.69;5067518;28;20044;-64
2023/08/07 10:49:40;;;;;;;10.80;2.55;;;;;;;19.82;56.21;101583.09;5068329;28;20107;-65
2023/08/07 10:52:13;;;;;;;9.23;2.63;;;;;;;19.85;56.59;101573.22;5060670;28;20075;-66
2023/08/07 10:54:49;;;;;;;4.57;2.35;;;;;;;19.89;57.25;101572.13;5050832;28;20045;-65
2023/08/07 10:57:18;;;;;;;6.82;2.50;;;;;;;20.18;55.94;101571.00;5050564;28;20052;-65
2023/08/07 10:59:59;;;;;;;6.20;2.75;;;;;;;19.73;53.84;101571.28;5059352;28;20440;-64
2023/08/07 11:02:30;;;;;;;6.90;3.25;;;;;;;19.46;54.65;101586.00;5058488;28;20060;-64
2023/08/07 11:04:57;;;;;;;5.05;2.00;;;;;;;19.41;54.55;101582.63;5065254;28;20079;-64
2023/08/07 11:07:27;;;;;;;10.93;2.20;;;;;;;19.41;54.23;101582.63;5058059;28;20056;-63
2023/08/07 11:09:55;;;;;;;5.47;2.15;;;;;;;19.25;55.34;101576.13;5060356;28;20049;-66
2023/08/07 11:12:27;;;;;;;5.13;2.17;;;;;;;19.26;55.07;101570.19;5046469;28;20059;-65
2023/08/07 11:14:58;;;;;;;8.50;2.20;;;;;;;19.40;53.92;101569.84;5065560;28;20045;-64
2023/08/07 11:17:26;;;;;;;7.40;1.90;;;;;;;19.56;53.97;101557.56;5065357;28;20056;-63
2023/08/07 11:19:55;;;;;;;4.18;1.75;;;;;;;19.58;52.07;101569.19;5062898;28;20059;-64
2023/08/07 11:22:22;;;;;;;6.07;2.20;;;;;;;19.50;52.19;101561.78;5084024;28;20052;-65
2023/08/07 11:24:51;;;;;;;4.82;2.20;;;;;;;19.58;51.48;101546.06;5054786;28;20047;-65